createdAt,value
2022-09-07T00:01:00.864Z,85.87
2022-09-07T00:03:27.928Z,85.05
2022-09-07T00:05:54.907Z,82.31
2022-09-07T00:08:25.147Z,83.40
2022-09-07T00:11:04.363Z,84.63
2022-09-07T00:13:35.183Z,84.99
2022-09-07T00:16:07.698Z,86.43
2022-09-07T00:18:35.082Z,85.92
2022-09-07T00:21:07.794Z,85.55
2022-09-07T00:23:36.985Z,86.94
2022-09-07T00:26:07.059Z,87.12
2022-09-07T00:28:34.474Z,87.98
2022-09-07T00:31:01.625Z,87.97
2022-09-07T00:33:28.536Z,88.16
2022-09-07T00:35:55.273Z,87.90
2022-09-07T00:38:22.215Z,87.47
2022-09-07T00:40:49.243Z,87.61
2022-09-07T00:43:28.824Z,87.92
2022-09-07T00:45:55.469Z,87.73
2022-09-07T00:48:26.027Z,87.06
2022-09-07T00:50:58.778Z,86.90
2022-09-07T00:53:30.595Z,87.52
2022-09-07T00:55:59.327Z,88.29
2022-09-07T00:58:26.275Z,88.65
2022-09-07T01:00:53.145Z,88.53
2022-09-07T01:03:27.438Z,88.29
2022-09-07T01:06:19.149Z,88.90
2022-09-07T01:08:49.832Z,89.17
2022-09-07T01:11:22.073Z,89.27
2022-09-07T01:13:50.830Z,88.84
2022-09-07T01:16:32.021Z,88.51
2022-09-07T01:19:16.772Z,89.01
2022-09-07T01:22:02.022Z,88.72
2022-09-07T01:24:37.858Z,89.20
2022-09-07T01:27:19.821Z,88.41
2022-09-07T01:29:59.011Z,88.20
2022-09-07T01:32:37.891Z,88.59
2022-09-07T01:35:15.365Z,88.52
2022-09-07T01:37:57.793Z,89.38
2022-09-07T01:40:41.882Z,89.13
2022-09-07T01:43:15.105Z,88.47
2022-09-07T01:45:44.746Z,87.57
2022-09-07T01:48:15.154Z,87.63
2022-09-07T01:50:52.515Z,87.39
2022-09-07T01:53:27.218Z,87.50
2022-09-07T01:56:03.686Z,88.15
2022-09-07T01:58:44.831Z,88.90
2022-09-07T02:01:53.185Z,88.18
2022-09-07T02:04:37.757Z,87.58
2022-09-07T02:07:25.790Z,88.12
2022-09-07T02:09:55.247Z,88.46
2022-09-07T02:12:30.233Z,88.92
2022-09-07T02:15:01.706Z,88.92
2022-09-07T02:17:43.481Z,87.88
2022-09-07T02:20:15.438Z,87.24
2022-09-07T02:22:47.049Z,86.89
2022-09-07T02:25:26.168Z,86.78
2022-09-07T02:28:09.693Z,87.04
2022-09-07T02:30:37.452Z,87.29
2022-09-07T02:33:04.663Z,87.88
2022-09-07T02:35:32.050Z,88.06
2022-09-07T02:38:03.205Z,88.67
2022-09-07T02:40:30.097Z,88.86
2022-09-07T02:43:00.555Z,87.96
2022-09-07T02:45:37.819Z,88.30
2022-09-07T02:48:16.601Z,87.08
2022-09-07T02:50:49.116Z,86.90
2022-09-07T02:53:34.758Z,87.25
2022-09-07T02:56:12.341Z,87.75
2022-09-07T02:58:47.968Z,87.55
2022-09-07T03:01:51.433Z,87.32
2022-09-07T03:05:06.238Z,88.23
2022-09-07T03:07:43.533Z,88.34
2022-09-07T03:10:12.691Z,87.85
2022-09-07T03:12:45.510Z,87.36
2022-09-07T03:15:14.427Z,88.17
2022-09-07T03:17:42.173Z,88.73
2022-09-07T03:20:09.510Z,88.56
2022-09-07T03:22:36.276Z,88.32
2022-09-07T03:25:04.410Z,88.74
2022-09-07T03:27:32.665Z,88.71
2022-09-07T03:29:59.988Z,89.06
2022-09-07T03:32:32.277Z,88.57
2022-09-07T03:34:59.893Z,88.51
2022-09-07T03:37:26.879Z,88.40
2022-09-07T03:39:53.932Z,88.87
2022-09-07T03:42:21.487Z,88.50
2022-09-07T03:44:49.932Z,88.96
2022-09-07T03:47:17.790Z,88.85
2022-09-07T03:49:44.905Z,88.67
2022-09-07T03:52:11.918Z,87.53
2022-09-07T03:54:39.776Z,87.72
2022-09-07T03:57:06.800Z,88.50
2022-09-07T03:59:33.669Z,88.81
2022-09-07T04:02:00.780Z,88.99
2022-09-07T04:04:28.063Z,88.66
2022-09-07T04:06:55.104Z,88.93
2022-09-07T04:09:21.934Z,88.99
2022-09-07T04:11:48.681Z,89.28
2022-09-07T04:14:15.479Z,89.19
2022-09-07T04:16:42.367Z,89.60
2022-09-07T04:19:09.229Z,89.52
2022-09-07T04:21:35.942Z,89.17
2022-09-07T04:24:02.942Z,89.57
2022-09-07T04:26:32.388Z,91.04
2022-09-07T04:29:01.339Z,90.66
2022-09-07T04:31:28.204Z,90.00
2022-09-07T04:33:55.758Z,89.11
2022-09-07T04:36:24.912Z,89.72
2022-09-07T04:39:00.595Z,91.25
2022-09-07T04:41:29.391Z,90.89
2022-09-07T04:43:58.024Z,92.97
2022-09-07T04:46:42.966Z,93.12
2022-09-07T04:49:12.035Z,93.26
2022-09-07T04:51:39.952Z,93.49
2022-09-07T04:54:07.136Z,94.56
2022-09-07T04:56:34.470Z,93.77
2022-09-07T04:59:02.391Z,93.70
2022-09-07T05:01:29.948Z,93.32
2022-09-07T05:03:58.915Z,92.46
2022-09-07T05:06:25.584Z,91.84
2022-09-07T05:08:54.448Z,91.77
2022-09-07T05:11:28.325Z,90.15
2022-09-07T05:14:01.478Z,89.55
2022-09-07T05:16:29.664Z,89.08
2022-09-07T05:18:59.054Z,88.45
2022-09-07T05:21:28.585Z,88.14
2022-09-07T05:23:57.365Z,88.16
2022-09-07T05:26:27.275Z,87.55
2022-09-07T05:31:41.835Z,86.43
2022-09-07T05:36:56.388Z,86.78
2022-09-07T05:39:23.506Z,85.85
2022-09-07T05:41:50.261Z,84.91
2022-09-07T05:47:04.269Z,84.34
2022-09-07T05:53:46.191Z,83.15
2022-09-07T05:56:13.656Z,83.52
2022-09-07T05:58:40.699Z,83.56
2022-09-07T06:01:10.224Z,82.77
2022-09-07T06:03:39.344Z,83.10
2022-09-07T06:06:07.609Z,82.83
2022-09-07T06:08:36.153Z,82.90
2022-09-07T06:11:10.982Z,82.16
